sensor_id;sensor_type;location;lat;lon;timestamp;pressure;altitude;pressure_sealevel;temperature;humidity
37648;BME280;23490;53.656;10.076;2022-08-30T00:01:25;55894.84;;;-145.95;72.78
37648;BME280;23490;53.656;10.076;2022-08-30T00:03:52;55874.47;;;-145.95;72.05
37648;BME280;23490;53.656;10.076;2022-08-30T00:06:20;55880.56;;;-145.95;72.65
37648;BME280;23490;53.656;10.076;2022-08-30T00:08:46;55862.22;;;-145.95;73.14
37648;BME280;23490;53.656;10.076;2022-08-30T00:11:21;55870.38;;;-145.95;73.74
37648;BME280;23490;53.656;10.076;2022-08-30T00:13:48;55845.91;;;-145.95;73.55
37648;BME280;23490;53.656;10.076;2022-08-30T00:16:15;55880.56;;;-145.95;73.47
37648;BME280;23490;53.656;10.076;2022-08-30T00:18:41;55874.47;;;-145.95;73.84
37648;BME280;23490;53.656;10.076;2022-08-30T00:21:07;55847.94;;;-145.95;73.56
37648;BME280;23490;53.656;10.076;2022-08-30T00:23:34;55833.66;;;-145.95;74.09
37648;BME280;23490;53.656;10.076;2022-08-30T00:25:59;55858.16;;;-145.95;74.21
37648;BME280;23490;53.656;10.076;2022-08-30T00:28:26;55935.63;;;-145.95;73.90
37648;BME280;23490;53.656;10.076;2022-08-30T00:30:51;55854.06;;;-145.95;73.50
37648;BME280;23490;53.656;10.076;2022-08-30T00:33:16;55880.56;;;-145.95;73.71
37648;BME280;23490;53.656;10.076;2022-08-30T00:35:42;55870.38;;;-145.95;73.39
37648;BME280;23490;53.656;10.076;2022-08-30T00:38:10;55845.91;;;-145.95;73.78
37648;BME280;23490;53.656;10.076;2022-08-30T00:40:36;55905.03;;;-145.95;73.96
37648;BME280;23490;53.656;10.076;2022-08-30T00:43:05;55882.63;;;-145.95;74.95
37648;BME280;23490;53.656;10.076;2022-08-30T00:45:34;55829.59;;;-145.95;75.14
37648;BME280;23490;53.656;10.076;2022-08-30T00:48:00;55919.31;;;-145.95;74.53
37648;BME280;23490;53.656;10.076;2022-08-30T00:50:34;55880.56;;;-145.95;76.19
37648;BME280;23490;53.656;10.076;2022-08-30T00:53:03;55884.66;;;-145.95;75.22
37648;BME280;23490;53.656;10.076;2022-08-30T00:55:30;55872.41;;;-145.95;75.52
37648;BME280;23490;53.656;10.076;2022-08-30T00:58:02;55872.41;;;-145.95;75.57
37648;BME280;23490;53.656;10.076;2022-08-30T01:00:29;55862.22;;;-145.95;75.62
37648;BME280;23490;53.656;10.076;2022-08-30T01:02:55;55850.00;;;-145.95;76.56
37648;BME280;23490;53.656;10.076;2022-08-30T01:05:20;55882.63;;;-145.95;77.14
37648;BME280;23490;53.656;10.076;2022-08-30T01:07:48;55862.22;;;-145.95;77.19
37648;BME280;23490;53.656;10.076;2022-08-30T01:10:15;55872.41;;;-145.95;76.76
37648;BME280;23490;53.656;10.076;2022-08-30T01:12:41;55878.53;;;-145.95;76.79
37648;BME280;23490;53.656;10.076;2022-08-30T01:15:08;55882.63;;;-145.95;75.99
37648;BME280;23490;53.656;10.076;2022-08-30T01:17:34;55890.78;;;-145.95;75.86
37648;BME280;23490;53.656;10.076;2022-08-30T01:20:09;55854.06;;;-145.95;75.96
37648;BME280;23490;53.656;10.076;2022-08-30T01:22:43;55866.31;;;-145.95;74.50
37648;BME280;23490;53.656;10.076;2022-08-30T01:25:11;55850.00;;;-145.95;75.07
37648;BME280;23490;53.656;10.076;2022-08-30T01:27:40;55854.06;;;-145.95;74.68
37648;BME280;23490;53.656;10.076;2022-08-30T01:30:06;55880.56;;;-145.95;74.64
37648;BME280;23490;53.656;10.076;2022-08-30T01:32:38;55862.22;;;-145.95;74.28
37648;BME280;23490;53.656;10.076;2022-08-30T01:35:04;55837.75;;;-145.95;74.10
37648;BME280;23490;53.656;10.076;2022-08-30T01:37:32;55894.84;;;-145.95;74.05
37648;BME280;23490;53.656;10.076;2022-08-30T01:39:58;55829.59;;;-145.95;73.77
37648;BME280;23490;53.656;10.076;2022-08-30T01:42:24;55845.91;;;-145.95;74.55
37648;BME280;23490;53.656;10.076;2022-08-30T01:44:49;55862.22;;;-145.95;74.06
37648;BME280;23490;53.656;10.076;2022-08-30T01:47:15;55858.16;;;-145.95;72.85
37648;BME280;23490;53.656;10.076;2022-08-30T01:49:43;55870.38;;;-145.95;72.81
37648;BME280;23490;53.656;10.076;2022-08-30T01:52:10;55896.88;;;-145.95;73.97
37648;BME280;23490;53.656;10.076;2022-08-30T01:54:38;55837.75;;;-145.95;73.29
37648;BME280;23490;53.656;10.076;2022-08-30T01:57:07;55850.00;;;-145.95;73.14
37648;BME280;23490;53.656;10.076;2022-08-30T01:59:34;55837.75;;;-145.95;72.12
37648;BME280;23490;53.656;10.076;2022-08-30T02:01:59;55833.66;;;-145.95;73.35
37648;BME280;23490;53.656;10.076;2022-08-30T02:04:25;55862.22;;;-145.95;74.70
37648;BME280;23490;53.656;10.076;2022-08-30T02:06:51;55862.22;;;-145.95;73.09
37648;BME280;23490;53.656;10.076;2022-08-30T02:09:17;55911.16;;;-145.95;74.35
37648;BME280;23490;53.656;10.076;2022-08-30T02:11:42;55868.34;;;-145.95;74.75
37648;BME280;23490;53.656;10.076;2022-08-30T02:14:08;55890.78;;;-145.95;74.45
37648;BME280;23490;53.656;10.076;2022-08-30T02:16:34;55845.91;;;-145.95;74.00
37648;BME280;23490;53.656;10.076;2022-08-30T02:18:59;55882.63;;;-145.95;73.44
37648;BME280;23490;53.656;10.076;2022-08-30T02:21:25;55847.94;;;-145.95;73.99
37648;BME280;23490;53.656;10.076;2022-08-30T02:23:52;55839.78;;;-145.95;73.82
37648;BME280;23490;53.656;10.076;2022-08-30T02:26:18;55854.06;;;-145.95;73.75
37648;BME280;23490;53.656;10.076;2022-08-30T02:28:45;55845.91;;;-145.95;74.08
37648;BME280;23490;53.656;10.076;2022-08-30T02:31:10;55890.78;;;-145.95;74.82
37648;BME280;23490;53.656;10.076;2022-08-30T02:33:36;55862.22;;;-145.95;74.63
37648;BME280;23490;53.656;10.076;2022-08-30T02:36:04;55862.22;;;-145.95;73.67
37648;BME280;23490;53.656;10.076;2022-08-30T02:38:30;55882.63;;;-145.95;73.33
37648;BME280;23490;53.656;10.076;2022-08-30T02:40:55;55825.53;;;-145.95;73.27
37648;BME280;23490;53.656;10.076;2022-08-30T02:43:20;55841.84;;;-145.95;74.35
37648;BME280;23490;53.656;10.076;2022-08-30T02:45:46;55825.53;;;-145.95;74.39
37648;BME280;23490;53.656;10.076;2022-08-30T02:48:11;55858.16;;;-145.95;74.57
37648;BME280;23490;53.656;10.076;2022-08-30T02:50:40;55862.22;;;-145.95;73.88
37648;BME280;23490;53.656;10.076;2022-08-30T02:53:05;55850.00;;;-145.95;72.70
37648;BME280;23490;53.656;10.076;2022-08-30T02:55:31;55854.06;;;-145.95;73.41
37648;BME280;23490;53.656;10.076;2022-08-30T02:57:56;55839.78;;;-145.95;73.48
37648;BME280;23490;53.656;10.076;2022-08-30T03:00:21;55854.06;;;-145.95;73.54
37648;BME280;23490;53.656;10.076;2022-08-30T03:02:47;55821.44;;;-145.95;73.14
37648;BME280;23490;53.656;10.076;2022-08-30T03:05:14;55896.88;;;-145.95;73.67
37648;BME280;23490;53.656;10.076;2022-08-30T03:07:41;55850.00;;;-145.95;73.54
37648;BME280;23490;53.656;10.076;2022-08-30T03:10:07;55874.47;;;-145.95;75.41
37648;BME280;23490;53.656;10.076;2022-08-30T03:12:33;55949.91;;;-145.95;79.02
37648;BME280;23490;53.656;10.076;2022-08-30T03:14:58;55850.00;;;-145.95;80.54
37648;BME280;23490;53.656;10.076;2022-08-30T03:17:24;55882.63;;;-145.95;82.02
37648;BME280;23490;53.656;10.076;2022-08-30T03:19:49;55845.91;;;-145.95;82.32
37648;BME280;23490;53.656;10.076;2022-08-30T03:22:15;55870.38;;;-145.95;81.30
37648;BME280;23490;53.656;10.076;2022-08-30T03:24:41;55821.44;;;-145.95;83.74
37648;BME280;23490;53.656;10.076;2022-08-30T03:27:06;55829.59;;;-145.95;83.47
37648;BME280;23490;53.656;10.076;2022-08-30T03:29:33;55870.38;;;-145.95;82.97
37648;BME280;23490;53.656;10.076;2022-08-30T03:31:58;55878.53;;;-145.95;85.30
37648;BME280;23490;53.656;10.076;2022-08-30T03:34:25;55860.19;;;-145.95;84.67
37648;BME280;23490;53.656;10.076;2022-08-30T03:36:52;55841.84;;;-145.95;84.71
37648;BME280;23490;53.656;10.076;2022-08-30T03:39:18;55847.94;;;-145.95;84.43
37648;BME280;23490;53.656;10.076;2022-08-30T03:41:43;55903.00;;;-145.95;82.41
37648;BME280;23490;53.656;10.076;2022-08-30T03:44:10;55874.47;;;-145.95;85.36
37648;BME280;23490;53.656;10.076;2022-08-30T03:46:35;55854.06;;;-145.95;83.97
37648;BME280;23490;53.656;10.076;2022-08-30T03:49:01;55870.38;;;-145.95;83.11
37648;BME280;23490;53.656;10.076;2022-08-30T03:51:26;55884.66;;;-145.95;84.07
37648;BME280;23490;53.656;10.076;2022-08-30T03:53:51;55850.00;;;-145.95;84.17
37648;BME280;23490;53.656;10.076;2022-08-30T03:56:20;55874.47;;;-145.95;84.27
37648;BME280;23490;53.656;10.076;2022-08-30T03:58:45;55821.44;;;-145.95;84.20
37648;BME280;23490;53.656;10.076;2022-08-30T04:01:11;55911.16;;;-145.95;83.67
37648;BME280;23490;53.656;10.076;2022-08-30T04:03:36;55878.53;;;-145.95;82.81
37648;BME280;23490;53.656;10.076;2022-08-30T04:06:03;55850.00;;;-145.95;84.08
37648;BME280;23490;53.656;10.076;2022-08-30T04:08:28;55866.31;;;-145.95;84.14
37648;BME280;23490;53.656;10.076;2022-08-30T04:10:54;55903.00;;;-145.95;84.49
37648;BME280;23490;53.656;10.076;2022-08-30T04:13:21;55829.59;;;-145.95;85.37
37648;BME280;23490;53.656;10.076;2022-08-30T04:15:46;55890.78;;;-145.95;85.51
37648;BME280;23490;53.656;10.076;2022-08-30T04:18:11;55870.38;;;-145.95;84.72
37648;BME280;23490;53.656;10.076;2022-08-30T04:20:37;55866.31;;;-145.95;83.04
37648;BME280;23490;53.656;10.076;2022-08-30T04:23:04;55854.06;;;-145.95;84.32
37648;BME280;23490;53.656;10.076;2022-08-30T04:25:32;55821.44;;;-145.95;82.99
37648;BME280;23490;53.656;10.076;2022-08-30T04:27:58;55862.22;;;-145.95;82.26
37648;BME280;23490;53.656;10.076;2022-08-30T04:30:23;55862.22;;;-145.95;83.98
37648;BME280;23490;53.656;10.076;2022-08-30T04:32:49;55878.53;;;-145.95;82.71
37648;BME280;23490;53.656;10.076;2022-08-30T04:35:14;55886.69;;;-145.95;82.12
37648;BME280;23490;53.656;10.076;2022-08-30T04:37:40;55903.00;;;-145.95;83.56
37648;BME280;23490;53.656;10.076;2022-08-30T04:40:06;55864.25;;;-145.95;83.23
37648;BME280;23490;53.656;10.076;2022-08-30T04:42:33;55854.06;;;-145.95;83.43
37648;BME280;23490;53.656;10.076;2022-08-30T04:45:04;55903.00;;;-145.95;83.58
37648;BME280;23490;53.656;10.076;2022-08-30T04:47:30;55878.53;;;-145.95;83.13
37648;BME280;23490;53.656;10.076;2022-08-30T04:49:55;55831.63;;;-145.95;82.32
37648;BME280;23490;53.656;10.076;2022-08-30T04:52:21;55805.13;;;-145.95;81.57
37648;BME280;23490;53.656;10.076;2022-08-30T04:54:47;55878.53;;;-145.95;81.74
37648;BME280;23490;53.656;10.076;2022-08-30T04:57:12;55874.47;;;-145.95;81.73
37648;BME280;23490;53.656;10.076;2022-08-30T04:59:38;55882.63;;;-145.95;83.04
37648;BME280;23490;53.656;10.076;2022-08-30T05:02:04;55878.53;;;-145.95;82.61
37648;BME280;23490;53.656;10.076;2022-08-30T05:04:29;55866.31;;;-145.95;82.51
37648;BME280;23490;53.656;10.076;2022-08-30T05:06:55;55856.09;;;-145.95;81.87
37648;BME280;23490;53.656;10.076;2022-08-30T05:09:20;55894.84;;;-145.95;82.04
37648;BME280;23490;53.656;10.076;2022-08-30T05:11:46;55907.09;;;-145.95;81.16
37648;BME280;23490;53.656;10.076;2022-08-30T05:14:12;55866.31;;;-145.95;81.58
37648;BME280;23490;53.656;10.076;2022-08-30T05:16:38;55866.31;;;-145.95;80.74
37648;BME280;23490;53.656;10.076;2022-08-30T05:19:03;55896.88;;;-145.95;81.20
37648;BME280;23490;53.656;10.076;2022-08-30T05:21:28;55888.72;;;-145.95;81.13
37648;BME280;23490;53.656;10.076;2022-08-30T05:23:56;55878.53;;;-145.95;81.59
37648;BME280;23490;53.656;10.076;2022-08-30T05:26:25;55862.22;;;-145.95;81.33
37648;BME280;23490;53.656;10.076;2022-08-30T05:28:50;55870.38;;;-145.95;81.24
37648;BME280;23490;53.656;10.076;2022-08-30T05:31:20;55845.91;;;-145.95;79.91
37648;BME280;23490;53.656;10.076;2022-08-30T05:33:46;55919.31;;;-145.95;80.05
37648;BME280;23490;53.656;10.076;2022-08-30T05:36:14;55886.69;;;-145.95;79.22
37648;BME280;23490;53.656;10.076;2022-08-30T05:38:40;55882.63;;;-145.95;80.60
37648;BME280;23490;53.656;10.076;2022-08-30T05:41:06;55858.16;;;-145.95;80.89
37648;BME280;23490;53.656;10.076;2022-08-30T05:43:32;55866.31;;;-145.95;79.21
37648;BME280;23490;53.656;10.076;2022-08-30T05:46:03;55852.03;;;-145.95;78.49
37648;BME280;23490;53.656;10.076;2022-08-30T05:48:30;55886.69;;;-145.95;79.14
37648;BME280;23490;53.656;10.076;2022-08-30T05:51:05;55927.47;;;-145.95;78.90
37648;BME280;23490;53.656;10.076;2022-08-30T05:53:31;55870.38;;;-145.95;78.31
37648;BME280;23490;53.656;10.076;2022-08-30T05:55:56;55907.09;;;-145.95;78.67
37648;BME280;23490;53.656;10.076;2022-08-30T05:58:22;55856.09;;;-145.95;79.57
37648;BME280;23490;53.656;10.076;2022-08-30T06:00:47;55894.84;;;-145.95;79.07
37648;BME280;23490;53.656;10.076;2022-08-30T06:03:13;55874.47;;;-145.95;78.86
37648;BME280;23490;53.656;10.076;2022-08-30T06:05:38;55907.09;;;-145.95;78.72
37648;BME280;23490;53.656;10.076;2022-08-30T06:08:03;55905.03;;;-145.95;77.89
37648;BME280;23490;53.656;10.076;2022-08-30T06:10:29;55919.31;;;-145.95;79.39
37648;BME280;23490;53.656;10.076;2022-08-30T06:12:54;55868.34;;;-145.95;78.77
37648;BME280;23490;53.656;10.076;2022-08-30T06:15:19;55898.94;;;-145.95;78.26
37648;BME280;23490;53.656;10.076;2022-08-30T06:17:46;55911.16;;;-145.95;78.29
37648;BME280;23490;53.656;10.076;2022-08-30T06:20:12;55858.16;;;-145.95;77.24
37648;BME280;23490;53.656;10.076;2022-08-30T06:22:38;55890.78;;;-145.95;77.63
37648;BME280;23490;53.656;10.076;2022-08-30T06:25:03;55874.47;;;-145.95;77.39
37648;BME280;23490;53.656;10.076;2022-08-30T06:27:29;55896.88;;;-145.95;76.80
37648;BME280;23490;53.656;10.076;2022-08-30T06:29:55;55884.66;;;-145.95;77.72
37648;BME280;23490;53.656;10.076;2022-08-30T06:32:20;55886.69;;;-145.95;78.75
37648;BME280;23490;53.656;10.076;2022-08-30T06:34:46;55892.81;;;-145.95;77.78
37648;BME280;23490;53.656;10.076;2022-08-30T06:37:12;55903.00;;;-145.95;78.11
37648;BME280;23490;53.656;10.076;2022-08-30T06:39:38;55894.84;;;-145.95;77.42
37648;BME280;23490;53.656;10.076;2022-08-30T06:42:03;55868.34;;;-145.95;78.16
37648;BME280;23490;53.656;10.076;2022-08-30T06:44:28;55886.69;;;-145.95;77.94
37648;BME280;23490;53.656;10.076;2022-08-30T06:46:54;55862.22;;;-145.95;78.97
37648;BME280;23490;53.656;10.076;2022-08-30T06:49:19;55894.84;;;-145.95;78.70
37648;BME280;23490;53.656;10.076;2022-08-30T06:51:45;55890.78;;;-145.95;78.97
37648;BME280;23490;53.656;10.076;2022-08-30T06:54:10;55890.78;;;-145.95;78.72
37648;BME280;23490;53.656;10.076;2022-08-30T06:56:36;55845.91;;;-145.95;79.19
37648;BME280;23490;53.656;10.076;2022-08-30T06:59:03;55896.88;;;-145.95;79.35
37648;BME280;23490;53.656;10.076;2022-08-30T07:01:28;55870.38;;;-145.95;78.84
37648;BME280;23490;53.656;10.076;2022-08-30T07:03:55;55903.00;;;-145.95;79.98
37648;BME280;23490;53.656;10.076;2022-08-30T07:06:22;55890.78;;;-145.95;79.85
37648;BME280;23490;53.656;10.076;2022-08-30T07:08:48;55890.78;;;-145.95;79.56
37648;BME280;23490;53.656;10.076;2022-08-30T07:11:24;55896.88;;;-145.95;79.23
37648;BME280;23490;53.656;10.076;2022-08-30T07:13:50;55882.63;;;-145.95;80.73
37648;BME280;23490;53.656;10.076;2022-08-30T07:16:15;55866.31;;;-145.95;80.04
37648;BME280;23490;53.656;10.076;2022-08-30T07:18:40;55900.97;;;-145.95;80.45
37648;BME280;23490;53.656;10.076;2022-08-30T07:21:18;55907.09;;;-145.95;79.97
37648;BME280;23490;53.656;10.076;2022-08-30T07:23:45;55870.38;;;-145.95;79.16
37648;BME280;23490;53.656;10.076;2022-08-30T07:26:13;55903.00;;;-145.95;79.98
37648;BME280;23490;53.656;10.076;2022-08-30T07:28:41;55888.72;;;-145.95;79.75
37648;BME280;23490;53.656;10.076;2022-08-30T07:31:07;55909.13;;;-145.95;79.69
37648;BME280;23490;53.656;10.076;2022-08-30T07:33:33;55892.81;;;-145.95;80.58
37648;BME280;23490;53.656;10.076;2022-08-30T07:35:58;55923.41;;;-145.95;80.64
37648;BME280;23490;53.656;10.076;2022-08-30T07:38:25;55890.78;;;-145.95;80.13
37648;BME280;23490;53.656;10.076;2022-08-30T07:40:50;55874.47;;;-145.95;80.00
37648;BME280;23490;53.656;10.076;2022-08-30T07:43:15;55915.25;;;-145.95;80.23
37648;BME280;23490;53.656;10.076;2022-08-30T07:45:41;55911.16;;;-145.95;80.47
37648;BME280;23490;53.656;10.076;2022-08-30T07:48:06;55882.63;;;-145.95;79.39
37648;BME280;23490;53.656;10.076;2022-08-30T07:50:32;55894.84;;;-145.95;79.88
37648;BME280;23490;53.656;10.076;2022-08-30T07:52:58;55915.25;;;-145.95;80.38
37648;BME280;23490;53.656;10.076;2022-08-30T07:55:23;55898.94;;;-145.95;78.44
37648;BME280;23490;53.656;10.076;2022-08-30T07:57:49;55872.41;;;-145.95;78.72
37648;BME280;23490;53.656;10.076;2022-08-30T08:00:15;55907.09;;;-145.95;78.16
37648;BME280;23490;53.656;10.076;2022-08-30T08:02:40;55921.34;;;-145.95;78.72
37648;BME280;23490;53.656;10.076;2022-08-30T08:05:07;55911.16;;;-145.95;77.99
37648;BME280;23490;53.656;10.076;2022-08-30T08:07:34;55905.03;;;-145.95;78.52
37648;BME280;23490;53.656;10.076;2022-08-30T08:09:59;55894.84;;;-145.95;77.99
37648;BME280;23490;53.656;10.076;2022-08-30T08:12:25;55915.25;;;-145.95;78.87
37648;BME280;23490;53.656;10.076;2022-08-30T08:14:51;55890.78;;;-145.95;76.44
37648;BME280;23490;53.656;10.076;2022-08-30T08:17:17;55915.25;;;-145.95;75.70
37648;BME280;23490;53.656;10.076;2022-08-30T08:19:42;55943.78;;;-145.95;75.63
37648;BME280;23490;53.656;10.076;2022-08-30T08:22:08;55890.78;;;-145.95;74.93
37648;BME280;23490;53.656;10.076;2022-08-30T08:24:33;55903.00;;;-145.95;75.41
37648;BME280;23490;53.656;10.076;2022-08-30T08:26:59;55911.16;;;-145.95;75.71
37648;BME280;23490;53.656;10.076;2022-08-30T08:29:24;55911.16;;;-145.95;74.83
37648;BME280;23490;53.656;10.076;2022-08-30T08:31:51;55931.56;;;-145.95;74.68
37648;BME280;23490;53.656;10.076;2022-08-30T08:34:16;55898.94;;;-145.95;75.66
37648;BME280;23490;53.656;10.076;2022-08-30T08:36:43;55966.22;;;-145.95;75.40
37648;BME280;23490;53.656;10.076;2022-08-30T08:39:09;55913.19;;;-145.95;74.79
37648;BME280;23490;53.656;10.076;2022-08-30T08:41:52;55874.47;;;-145.95;74.98
37648;BME280;23490;53.656;10.076;2022-08-30T08:49:41;55864.25;;;-145.95;73.60
37648;BME280;23490;53.656;10.076;2022-08-30T08:52:12;55915.25;;;-145.95;73.88
37648;BME280;23490;53.656;10.076;2022-08-30T08:55:03;55923.41;;;-145.95;73.79
37648;BME280;23490;53.656;10.076;2022-08-30T08:57:33;55923.41;;;-145.95;74.15
37648;BME280;23490;53.656;10.076;2022-08-30T08:59:59;55903.00;;;-145.95;73.67
37648;BME280;23490;53.656;10.076;2022-08-30T09:02:33;55923.41;;;-145.95;73.05
37648;BME280;23490;53.656;10.076;2022-08-30T09:05:01;55927.47;;;-145.95;72.92
37648;BME280;23490;53.656;10.076;2022-08-30T09:07:33;55923.41;;;-145.95;71.44
37648;BME280;23490;53.656;10.076;2022-08-30T09:10:01;55923.41;;;-145.95;70.34
37648;BME280;23490;53.656;10.076;2022-08-30T09:12:27;55862.22;;;-145.95;71.27
37648;BME280;23490;53.656;10.076;2022-08-30T09:15:02;55886.69;;;-145.95;69.79
37648;BME280;23490;53.656;10.076;2022-08-30T09:17:28;55911.16;;;-145.95;70.36
37648;BME280;23490;53.656;10.076;2022-08-30T09:19:57;55884.66;;;-145.95;68.83
37648;BME280;23490;53.656;10.076;2022-08-30T09:25:22;55903.00;;;-145.95;70.09
37648;BME280;23490;53.656;10.076;2022-08-30T09:27:49;55898.94;;;-145.95;70.46
37648;BME280;23490;53.656;10.076;2022-08-30T09:30:24;55923.41;;;-145.95;69.23
37648;BME280;23490;53.656;10.076;2022-08-30T09:32:53;55935.63;;;-145.95;69.50
37648;BME280;23490;53.656;10.076;2022-08-30T09:35:33;55935.63;;;-145.95;70.13
37648;BME280;23490;53.656;10.076;2022-08-30T09:38:29;55913.19;;;-145.95;69.33
37648;BME280;23490;53.656;10.076;2022-08-30T09:40:58;55894.84;;;-145.95;67.06
37648;BME280;23490;53.656;10.076;2022-08-30T09:43:30;55947.88;;;-145.95;66.78
37648;BME280;23490;53.656;10.076;2022-08-30T09:48:44;55898.94;;;-145.95;63.09
37648;BME280;23490;53.656;10.076;2022-08-30T09:53:42;55947.88;;;-145.95;59.85
37648;BME280;23490;53.656;10.076;2022-08-30T09:56:17;55907.09;;;-145.95;59.48
37648;BME280;23490;53.656;10.076;2022-08-30T09:59:00;55923.41;;;-145.95;59.64
37648;BME280;23490;53.656;10.076;2022-08-30T10:01:33;55968.25;;;-145.95;59.54
37648;BME280;23490;53.656;10.076;2022-08-30T10:04:38;55931.56;;;-145.95;57.13
37648;BME280;23490;53.656;10.076;2022-08-30T10:07:45;55919.31;;;-145.95;55.95
37648;BME280;23490;53.656;10.076;2022-08-30T10:10:35;55935.63;;;-145.95;56.73
37648;BME280;23490;53.656;10.076;2022-08-30T10:13:45;55968.25;;;-145.95;57.04
37648;BME280;23490;53.656;10.076;2022-08-30T10:16:36;55947.88;;;-145.95;56.00
37648;BME280;23490;53.656;10.076;2022-08-30T10:22:11;55939.72;;;-145.95;56.53
37648;BME280;23490;53.656;10.076;2022-08-30T10:24:44;55923.41;;;-145.95;58.40
37648;BME280;23490;53.656;10.076;2022-08-30T10:27:25;55939.72;;;-145.95;59.77
37648;BME280;23490;53.656;10.076;2022-08-30T10:29:56;55964.19;;;-145.95;61.31
37648;BME280;23490;53.656;10.076;2022-08-30T10:32:40;55943.78;;;-145.95;62.54
37648;BME280;23490;53.656;10.076;2022-08-30T10:35:20;55943.78;;;-145.95;63.23
37648;BME280;23490;53.656;10.076;2022-08-30T10:38:01;55923.41;;;-145.95;63.66
37648;BME280;23490;53.656;10.076;2022-08-30T10:43:16;55933.59;;;-145.95;63.68
37648;BME280;23490;53.656;10.076;2022-08-30T10:45:46;55931.56;;;-145.95;63.40
37648;BME280;23490;53.656;10.076;2022-08-30T10:48:24;55960.09;;;-145.95;64.38
37648;BME280;23490;53.656;10.076;2022-08-30T10:50:53;55903.00;;;-145.95;64.00
37648;BME280;23490;53.656;10.076;2022-08-30T10:53:29;55931.56;;;-145.95;62.22
37648;BME280;23490;53.656;10.076;2022-08-30T10:56:06;55931.56;;;-145.95;62.34
37648;BME280;23490;53.656;10.076;2022-08-30T10:58:32;55913.19;;;-145.95;61.58
37648;BME280;23490;53.656;10.076;2022-08-30T11:01:07;55927.47;;;-145.95;62.06
37648;BME280;23490;53.656;10.076;2022-08-30T11:06:52;55951.94;;;-145.95;62.04
37648;BME280;23490;53.656;10.076;2022-08-30T11:13:07;55947.88;;;-145.95;59.66
37648;BME280;23490;53.656;10.076;2022-08-30T11:15:35;55970.31;;;-145.95;60.43
37648;BME280;23490;53.656;10.076;2022-08-30T11:18:10;55925.44;;;-145.95;56.18
37648;BME280;23490;53.656;10.076;2022-08-30T11:23:31;55984.56;;;-145.95;56.08
37648;BME280;23490;53.656;10.076;2022-08-30T11:26:07;55933.59;;;-145.95;53.91
37648;BME280;23490;53.656;10.076;2022-08-30T11:41:45;55919.31;;;-145.95;52.50
37648;BME280;23490;53.656;10.076;2022-08-30T11:46:56;55968.25;;;-145.95;52.51
37648;BME280;23490;53.656;10.076;2022-08-30T11:52:03;55951.94;;;-145.95;51.51
37648;BME280;23490;53.656;10.076;2022-08-30T11:57:40;55923.41;;;-145.95;51.31
37648;BME280;23490;53.656;10.076;2022-08-30T12:10:54;55941.75;;;-145.95;50.81
37648;BME280;23490;53.656;10.076;2022-08-30T12:16:12;55931.56;;;-145.95;49.23
37648;BME280;23490;53.656;10.076;2022-08-30T12:18:59;55958.06;;;-145.95;49.82
37648;BME280;23490;53.656;10.076;2022-08-30T12:21:35;55907.09;;;-145.95;48.10
37648;BME280;23490;53.656;10.076;2022-08-30T12:24:20;55964.19;;;-145.95;47.14
37648;BME280;23490;53.656;10.076;2022-08-30T12:26:49;55951.94;;;-145.95;45.29
37648;BME280;23490;53.656;10.076;2022-08-30T12:34:46;55923.41;;;-145.95;47.14
37648;BME280;23490;53.656;10.076;2022-08-30T12:37:29;55984.56;;;-145.95;45.12
37648;BME280;23490;53.656;10.076;2022-08-30T12:40:08;55976.41;;;-145.95;48.53
37648;BME280;23490;53.656;10.076;2022-08-30T12:42:38;55919.31;;;-145.95;48.79
37648;BME280;23490;53.656;10.076;2022-08-30T12:45:14;55935.63;;;-145.95;45.90
37648;BME280;23490;53.656;10.076;2022-08-30T12:50:13;55951.94;;;-145.95;48.74
37648;BME280;23490;53.656;10.076;2022-08-30T12:52:41;55927.47;;;-145.95;48.84
37648;BME280;23490;53.656;10.076;2022-08-30T13:00:27;55907.09;;;-145.95;49.31
37648;BME280;23490;53.656;10.076;2022-08-30T13:02:54;55968.25;;;-145.95;46.78
37648;BME280;23490;53.656;10.076;2022-08-30T13:08:07;55907.09;;;-145.95;48.37
37648;BME280;23490;53.656;10.076;2022-08-30T13:10:33;55903.00;;;-145.95;47.95
37648;BME280;23490;53.656;10.076;2022-08-30T13:13:01;55951.94;;;-145.95;48.98
37648;BME280;23490;53.656;10.076;2022-08-30T13:15:32;55907.09;;;-145.95;49.73
37648;BME280;23490;53.656;10.076;2022-08-30T13:18:18;55907.09;;;-145.95;50.37
37648;BME280;23490;53.656;10.076;2022-08-30T13:20:45;55833.66;;;-145.95;48.61
37648;BME280;23490;53.656;10.076;2022-08-30T13:23:20;55919.31;;;-145.95;48.19
37648;BME280;23490;53.656;10.076;2022-08-30T13:25:46;55941.75;;;-145.95;45.01
37648;BME280;23490;53.656;10.076;2022-08-30T13:28:11;55923.41;;;-145.95;45.16
37648;BME280;23490;53.656;10.076;2022-08-30T13:30:37;55941.75;;;-145.95;45.11
37648;BME280;23490;53.656;10.076;2022-08-30T13:33:02;55921.34;;;-145.95;43.52
37648;BME280;23490;53.656;10.076;2022-08-30T13:35:29;55905.03;;;-145.95;41.91
37648;BME280;23490;53.656;10.076;2022-08-30T13:37:56;55880.56;;;-145.95;42.08
37648;BME280;23490;53.656;10.076;2022-08-30T13:40:22;55882.63;;;-145.95;40.58
37648;BME280;23490;53.656;10.076;2022-08-30T13:42:49;55870.38;;;-145.95;41.80
37648;BME280;23490;53.656;10.076;2022-08-30T13:45:17;55850.00;;;-145.95;41.17
37648;BME280;23490;53.656;10.076;2022-08-30T13:47:43;55860.19;;;-145.95;41.22
37648;BME280;23490;53.656;10.076;2022-08-30T13:50:11;55862.22;;;-145.95;39.76
37648;BME280;23490;53.656;10.076;2022-08-30T13:52:37;55876.50;;;-145.95;39.89
37648;BME280;23490;53.656;10.076;2022-08-30T13:55:02;55911.16;;;-145.95;40.01
37648;BME280;23490;53.656;10.076;2022-08-30T13:57:29;55886.69;;;-145.95;40.08